Lowell, MA (01850)

2:47 AM EDT on August 24, 2016 (GMT -0400)
Centralville | | Change Station

Elev 105 ft 42.66 °N, 71.31 °W | Updated 3 minutes ago

Clear
Clear
61.2 °F
Feels Like 61.2 °F
N
0.0
Wind Variable Wind from SSW

Today
High -- | Low -- °F
--% Chance of Precip.
Yesterday
High -- | Low -- °F
Precip. -- in
Pressure 30.25 in
Visibility 10.0 miles
Clouds Clear
Dew Point 55 °F
Humidity 81%
Rainfall 0.00 in
Snow Depth Not available.
6:01 AM 7:32 PM
Waning Gibbous, 60% visible
METAR KLWM 240554Z AUTO 17004KT 10SM CLR 18/13 A3025 RMK AO2 SLP243 T01780133 10233 20172 50001
Pressure 30.25 in
Visibility 10.0 miles
Clouds Clear
Dew Point 55 °F
Humidity 81%
Rainfall 0.00 in
Snow Depth Not available.
6:01 AM 7:32 PM
Waning Gibbous, 60% visible
METAR KLWM 240554Z AUTO 17004KT 10SM CLR 18/13 A3025 RMK AO2 SLP243 T01780133 10233 20172 50001

10-Day Weather Forecast

Almanac

Astronomy

Aug. 24, 2016 Rise Set
Actual Time
Civil Twilight
Nautical Twilight
Astronomical Twilight
Moon
Length of Visible Light
Length of Day
Tomorrow will be .
, % of the Moon is Illuminated

Today's Extremes

State Highs State Lows

Community

WunderPhotos

Upload Photos

1,934,555 photos uploaded!

WunderBlog® & News

Nearby

Air Quality

  Air Quality AQ Index Pollutant
Not available.

Snow Depth

Station Depth Elevation

Earthquake Activity

City Distance Mag. Time & Date
Minimum magnitude displayed is 2.5.

Coastal Water Temperatures

Place Temperature

Stations

Nearby Weather Stations

Station Location Temp. Windchill Dew Point Humidity Wind Precip. Elev Updated Type
                   

Watches & Warnings

There are currently no watches in effect.